• Join FlightAware (Why Join?)
  • Login
  • US Flag 
08:17PM EDT


 

Airport Tracker/Info


-or-


 

Live Flight TrackerFlight Track Log ✈ AWE239 ✈ 12-May-2012 ✈ KSFO - KPHX

Flight Track Log - Related Links

Times and Time Zones

All times are in EDT time to prevent confusion due to time zone crossing. See the AWE239 flight status page for this flight to view local times or setup timezone preferences in your user account.

Time Position Orientation Groundspeed Altitude Reporting Facility
EDT Latitude Longitude Course Direction KTS MPH feet Rate Location/Type
06:46PM 37.5733 -122.3286 336° Northwest  Level FlightAware Approximate
06:47PM 37.6461 -122.3689 191° South 170 196 1,300  Level Oakland Center
06:52PM 37.4997 -122.4056 127° Southeast 258 297 13,800 2,220 Climbing Oakland Center
06:53PM 37.4322 -122.2944 130° Southeast 282 325 15,300 1,680 Climbing Oakland Center
06:54PM 37.3644 -122.1939 131° Southeast 324 373 17,500 2,160 Climbing Oakland Center
06:55PM 37.2925 -122.0883 129° Southeast 365 420 19,700 2,100 Climbing Oakland Center
06:56PM 37.2225 -121.9803 131° Southeast 390 449 21,800 1,980 Climbing Oakland Center
06:57PM 37.1461 -121.8697 129° Southeast 402 463 23,700 1,800 Climbing Oakland Center
06:58PM 37.0719 -121.7569 130° Southeast 418 481 25,500 1,320 Climbing Oakland Center
06:59PM 36.9933 -121.6417 130° Southeast 423 487 26,400 1,140 Climbing Oakland Center
07:00PM 36.9106 -121.5189 130° Southeast 444 511 27,800 1,380 Climbing Oakland Center
07:01PM 36.8275 -121.3939 131° Southeast 461 531 29,200 1,260 Climbing Oakland Center
07:02PM 36.7425 -121.2717 130° Southeast 466 536 30,400 1,500 Climbing Oakland Center
07:03PM 36.6572 -121.1444 130° Southeast 471 542 32,300 1,680 Climbing Oakland Center
07:04PM 36.5739 -121.0200 131° Southeast 471 542 33,800 1,380 Climbing Oakland Center
07:05PM 36.4883 -120.8986 131° Southeast 471 542 35,100 1,140 Climbing Oakland Center
07:06PM 36.4047 -120.7775 129° Southeast 471 542 36,100 900 Climbing Oakland Center
07:07PM 36.3314 -120.6669 131° Southeast 465 535 36,900 840 Climbing Oakland Center
07:09PM 36.1611 -120.4219 131° Southeast 465 535 38,600 720 Climbing Los Angeles Center
07:10PM 36.0775 -120.3019 131° Southeast 465 535 39,000 120 Climbing Los Angeles Center
07:11PM 35.9919 -120.1819 131° Southeast 465 535 38,900  Descending Los Angeles Center
07:12PM 35.9064 -120.0597 131° Southeast 465 535 39,000  Climbing Los Angeles Center
07:13PM 35.8225 -119.9403 131° Southeast 465 535 39,000  Level Los Angeles Center
07:14PM 35.7386 -119.8211 128° Southeast 465 535 39,000  Level Los Angeles Center
07:15PM 35.6569 -119.6922 116° Southeast 465 535 39,000  Level Los Angeles Center
07:16PM 35.5983 -119.5467 116° Southeast 465 535 39,000 -60 Level Los Angeles Center
07:17PM 35.5400 -119.3986 116° Southeast 475 547 38,900 -60 Descending Los Angeles Center
07:18PM 35.4831 -119.2561 115° Southeast 475 547 38,900  Level Los Angeles Center
07:19PM 35.4264 -119.1086 115° Southeast 475 547 38,900  Level Los Angeles Center
07:20PM 35.3694 -118.9614 116° Southeast 472 543 39,000  Climbing Los Angeles Center
07:21PM 35.3061 -118.8039 116° Southeast 473 544 39,000  Level Los Angeles Center
07:22PM 35.2506 -118.6672 117° Southeast 496 571 39,000  Level Los Angeles Center
07:23PM 35.1908 -118.5231 116° Southeast 491 565 39,000  Level Los Angeles Center
07:24PM 35.1411 -118.3997 116° Southeast 465 535 39,000  Level Los Angeles Center
07:25PM 35.0833 -118.2536 117° Southeast 465 535 39,000  Level Los Angeles Center
07:26PM 35.0231 -118.1100 117° Southeast 470 541 39,000  Level Los Angeles Center
07:27PM 34.9628 -117.9639 117° Southeast 470 541 39,000  Level Los Angeles Center
07:28PM 34.9022 -117.8183 118° Southeast 475 547 39,000  Level Los Angeles Center
07:29PM 34.8394 -117.6728 116° Southeast 475 547 39,000  Level Los Angeles Center
07:30PM 34.7808 -117.5275 116° Southeast 480 552 39,000  Level Los Angeles Center
07:31PM 34.7219 -117.3825 117° Southeast 480 552 39,000  Level Los Angeles Center
07:32PM 34.6606 -117.2375 116° Southeast 480 552 39,000  Level Los Angeles Center
07:33PM 34.6033 -117.0953 117° Southeast 475 547 39,000  Level Los Angeles Center
07:34PM 34.5419 -116.9508 117° Southeast 475 547 39,000  Level Los Angeles Center
07:35PM 34.4822 -116.8092 117° Southeast 475 547 39,000  Level Los Angeles Center
07:36PM 34.4122 -116.6400 118° Southeast 475 547 39,000  Level Los Angeles Center
07:37PM 34.3500 -116.4986 117° Southeast 475 547 39,000  Level Los Angeles Center
07:38PM 34.2900 -116.3575 117° Southeast 475 547 39,000  Level Los Angeles Center
07:39PM 34.2294 -116.2167 120° Southeast 475 547 39,000  Level Los Angeles Center
07:40PM 34.1650 -116.0811 113° Southeast 475 547 39,000  Level Los Angeles Center
07:41PM 34.1083 -115.9181 118° Southeast 470 541 39,000 -60 Level Los Angeles Center
07:42PM 34.0475 -115.7803 118° Southeast 470 541 38,900  Descending Los Angeles Center
07:43PM 33.9867 -115.6428 118° Southeast 465 535 39,000  Climbing Los Angeles Center
07:44PM 33.9256 -115.5028 117° Southeast 465 535 38,900  Descending Los Angeles Center
07:45PM 33.8661 -115.3633 119° Southeast 465 535 39,000  Climbing Los Angeles Center
07:46PM 33.8028 -115.2239 113° Southeast 465 535 39,000  Level Los Angeles Center
07:47PM 33.7514 -115.0794 110° East 470 541 39,000  Level Los Angeles Center
07:48PM 33.7083 -114.9350 109° East 465 535 39,000 -1,620 Level Los Angeles Center
07:49PM 33.6672 -114.7908 109° East 459 528 35,800 -3,720 Descending Los Angeles Center
07:50PM 33.6217 -114.6319 109° East 467 537 31,600 -3,300 Descending Los Angeles Center
07:51PM 33.5758 -114.4758 109° East 488 562 29,200 -2,460 Descending Los Angeles Center
07:53PM 33.5139 -114.2594 108° East 492 566 25,700 -1,800 Descending Albuquerque Center
07:54PM 33.4742 -114.1142 105° East 484 557 24,900 -720 Descending Albuquerque Center
07:55PM 33.4475 -113.9925 104° East 471 542 24,300 -1,020 Descending Albuquerque Center
07:56PM 33.4111 -113.8206 98° East 460 529 22,900 -1,200 Descending Albuquerque Center
07:57PM 33.3936 -113.6800 99° East 446 513 22,000 -960 Descending Albuquerque Center
07:58PM 33.3758 -113.5419 99° East 424 488 21,000 -1,020 Descending Albuquerque Center
07:59PM 33.3575 -113.4089 98° East 418 481 20,000 -1,020 Descending Albuquerque Center
08:00PM 33.3414 -113.2736 99° East 412 474 19,000 -960 Descending Albuquerque Center
08:01PM 33.3228 -113.1406 99° East 407 468 18,100 -960 Descending Albuquerque Center
08:02PM 33.3042 -113.0075 99° East 407 468 17,100 -960 Descending Albuquerque Center
08:03PM 33.2869 -112.8847 94° East 402 463 16,200 -780 Descending Albuquerque Center
08:04PM 33.2808 -112.7900 89° East 378 435 15,600 -720 Descending Albuquerque Center
08:05PM 33.2822 -112.6683 87° East 350 403 14,700 -1,140 Descending Albuquerque Center
08:06PM 33.2881 -112.5322 87° East 337 388 13,200 -1,320 Descending Albuquerque Center
08:08PM 33.3000 -112.2833 90° East 304 350 10,500 -1,080 Descending Phoenix TRACON
08:09PM 33.3000 -112.1667 77° East 299 344 9,700 -720 Descending Phoenix TRACON
08:10PM 33.3167 -112.0833 77° East 269 310 9,000 -1,080 Descending Phoenix TRACON
08:11PM 33.3333 -112.0000 77° East 247 284 7,600 -1,860 Descending Phoenix TRACON
08:12PM 33.3500 -111.9167 40° Northeast 250 288 5,300 -2,160 Descending Phoenix TRACON
08:13PM 33.3833 -111.8833 40° Northeast 236 272 3,500 -1,980 Descending Phoenix TRACON